createdAt,value
2018-12-19T00:01:58.119Z,102936.55
2018-12-19T00:04:24.186Z,102930.83
2018-12-19T00:06:50.435Z,102939.62
2018-12-19T00:09:16.503Z,102940.93
2018-12-19T00:11:42.513Z,102942.25
2018-12-19T00:14:08.731Z,102944.87
2018-12-19T00:16:34.787Z,102949.25
2018-12-19T00:19:07.688Z,102943.97
2018-12-19T00:21:33.904Z,102947.03
2018-12-19T00:23:59.950Z,102951.85
2018-12-19T00:26:25.999Z,102957.54
2018-12-19T00:28:52.275Z,102953.14
2018-12-19T00:31:18.321Z,102948.75
2018-12-19T00:33:44.374Z,102950.93
2018-12-19T00:36:10.621Z,102942.61
2018-12-19T00:38:36.653Z,102936.94
2018-12-19T00:41:02.790Z,102938.67
2018-12-19T00:43:29.099Z,102940.89
2018-12-19T00:45:55.209Z,102942.20
2018-12-19T00:48:21.254Z,102947.47
2018-12-19T00:50:47.458Z,102945.23
2018-12-19T00:53:13.521Z,102939.95
2018-12-19T00:55:39.627Z,102943.89
2018-12-19T00:58:05.887Z,102950.89
2018-12-19T01:00:31.932Z,102951.35
2018-12-19T01:02:58.007Z,102950.03
2018-12-19T01:05:24.256Z,102949.14
2018-12-19T01:07:50.319Z,102944.77
2018-12-19T01:10:16.489Z,102953.52
2018-12-19T01:12:42.696Z,102955.28
2018-12-19T01:15:08.823Z,102952.19
2018-12-19T01:17:34.903Z,102950.86
2018-12-19T01:20:01.222Z,102946.50
2018-12-19T01:22:27.260Z,102942.97
2018-12-19T01:24:53.283Z,102947.81
2018-12-19T01:27:19.577Z,102945.16
2018-12-19T01:29:45.650Z,102949.53
2018-12-19T01:32:11.714Z,102943.39
2018-12-19T01:34:37.809Z,102947.34
2018-12-19T01:37:03.935Z,102949.06
2018-12-19T01:39:29.986Z,102951.26
2018-12-19T01:41:56.107Z,102959.16
2018-12-19T01:44:22.290Z,102956.52
2018-12-19T01:46:48.362Z,102954.31
2018-12-19T01:49:14.610Z,102952.98
2018-12-19T01:51:40.694Z,102947.28
2018-12-19T01:54:06.728Z,102959.10
2018-12-19T01:56:33.061Z,102959.10
2018-12-19T01:58:59.095Z,102958.20
2018-12-19T02:01:25.145Z,102956.45
2018-12-19T02:03:51.401Z,102946.34
2018-12-19T02:06:17.459Z,102955.13
2018-12-19T02:08:43.526Z,102952.03
2018-12-19T02:11:09.837Z,102954.66
2018-12-19T02:13:37.908Z,102953.80
2018-12-19T02:16:03.981Z,102957.75
2018-12-19T02:18:30.133Z,102955.13
2018-12-19T02:20:56.179Z,102955.95
2018-12-19T02:23:22.232Z,102955.93
2018-12-19T02:25:48.586Z,102956.39
2018-12-19T02:28:14.655Z,102955.07
2018-12-19T02:30:40.709Z,102954.19
2018-12-19T02:33:06.955Z,102954.21
2018-12-19T02:35:32.980Z,102950.27
2018-12-19T02:37:59.010Z,102947.20
2018-12-19T02:40:25.156Z,102943.67
2018-12-19T02:42:51.223Z,102949.36
2018-12-19T02:45:17.267Z,102950.67
2018-12-19T02:47:43.703Z,102961.65
2018-12-19T02:50:09.746Z,102960.31
2018-12-19T02:52:35.801Z,102958.11
2018-12-19T02:55:01.943Z,102952.84
2018-12-19T02:57:28.091Z,102957.63
2018-12-19T02:59:54.136Z,102951.46
2018-12-19T03:02:20.420Z,102950.09
2018-12-19T03:04:46.493Z,102951.38
2018-12-19T03:07:12.567Z,102950.48
2018-12-19T03:09:42.913Z,102952.69
2018-12-19T03:12:06.724Z,102949.60
2018-12-19T03:14:32.799Z,102947.43
2018-12-19T03:16:59.117Z,102948.29
2018-12-19T03:19:25.146Z,102953.55
2018-12-19T03:21:51.225Z,102950.08
2018-12-19T03:24:17.450Z,102945.66
2018-12-19T03:26:43.442Z,102945.22
2018-12-19T03:29:09.467Z,102947.84
2018-12-19T03:31:35.833Z,102947.43
2018-12-19T03:34:01.879Z,102947.43
2018-12-19T03:36:27.953Z,102952.70
2018-12-19T03:38:54.175Z,102944.36
2018-12-19T03:41:20.193Z,102943.94
2018-12-19T03:43:46.245Z,102952.74
2018-12-19T03:46:12.368Z,102946.59
2018-12-19T03:48:44.550Z,102950.53
2018-12-19T03:51:10.624Z,102949.66
2018-12-19T03:53:36.846Z,102956.70
2018-12-19T03:56:02.942Z,102959.33
2018-12-19T03:58:29.023Z,102948.80
2018-12-19T04:00:55.136Z,102953.60
2018-12-19T04:03:21.237Z,102959.33
2018-12-19T04:05:47.263Z,102955.37
2018-12-19T04:08:13.585Z,102949.63
2018-12-19T04:10:39.609Z,102954.44
2018-12-19T04:13:05.637Z,102947.43
2018-12-19T04:15:31.826Z,102950.91
2018-12-19T04:17:57.860Z,102954.02
2018-12-19T04:20:23.947Z,102956.66
2018-12-19T04:22:50.082Z,102957.97
2018-12-19T04:25:16.113Z,102961.93
2018-12-19T04:27:44.926Z,102957.98
2018-12-19T04:30:18.015Z,102960.59
2018-12-19T04:32:44.061Z,102960.61
2018-12-19T04:35:10.211Z,102964.11
2018-12-19T04:37:36.510Z,102968.50
2018-12-19T04:40:05.700Z,102968.50
2018-12-19T04:42:31.524Z,102960.61
2018-12-19T04:44:57.815Z,102964.96
2018-12-19T04:47:23.822Z,102963.62
2018-12-19T04:49:49.893Z,102904.08
2018-12-19T04:52:16.177Z,102952.67
2018-12-19T04:54:42.199Z,102960.12
2018-12-19T04:57:08.298Z,102954.88
2018-12-19T04:59:34.415Z,102958.84
2018-12-19T05:02:07.291Z,102951.84
2018-12-19T05:04:33.319Z,102950.53
2018-12-19T05:06:59.553Z,102956.69
2018-12-19T05:09:25.613Z,102954.91
2018-12-19T05:11:51.765Z,102958.02
2018-12-19T05:17:13.917Z,102959.33
2018-12-19T05:19:40.164Z,102961.52
2018-12-19T05:22:06.214Z,102909.41
2018-12-19T05:24:32.282Z,102958.84
2018-12-19T05:26:58.506Z,102959.30
2018-12-19T05:29:24.511Z,102958.00
2018-12-19T05:31:50.590Z,102947.91
2018-12-19T05:34:16.995Z,102949.66
2018-12-19T05:36:43.030Z,102941.77
2018-12-19T05:39:09.284Z,102942.23
2018-12-19T05:41:36.600Z,102944.39
2018-12-19T05:44:02.726Z,102946.59
2018-12-19T05:46:28.777Z,102954.02
2018-12-19T05:48:54.962Z,102946.95
2018-12-19T05:51:21.000Z,102944.78
2018-12-19T05:53:47.045Z,102949.13
2018-12-19T05:56:13.188Z,102942.12
2018-12-19T05:58:39.273Z,102941.23
2018-12-19T06:01:05.317Z,102946.09
2018-12-19T06:03:31.668Z,102948.70
2018-12-19T06:05:57.729Z,102943.45
2018-12-19T06:08:23.835Z,102947.83
2018-12-19T06:10:50.109Z,102945.19
2018-12-19T06:13:16.161Z,102946.50
2018-12-19T06:15:42.221Z,102939.02
2018-12-19T06:18:08.401Z,102940.80
2018-12-19T06:20:34.447Z,102940.34
2018-12-19T06:23:00.582Z,102937.67
2018-12-19T06:25:26.689Z,102935.89
2018-12-19T06:27:53.010Z,102940.25
2018-12-19T06:30:19.126Z,102943.34
2018-12-19T06:32:45.568Z,102943.77
2018-12-19T06:35:11.618Z,102951.23
2018-12-19T06:37:37.692Z,102948.61
2018-12-19T06:40:06.076Z,102956.91
2018-12-19T06:42:32.139Z,102949.42
2018-12-19T06:44:58.326Z,102957.77
2018-12-19T06:47:24.592Z,102952.91
2018-12-19T06:49:50.601Z,102952.48
2018-12-19T06:52:16.738Z,102953.80
2018-12-19T06:54:43.017Z,102933.98
2018-12-19T06:57:09.710Z,102948.09
2018-12-19T06:59:35.841Z,102950.70
2018-12-19T07:02:02.188Z,102948.55
2018-12-19T07:04:28.269Z,102949.38
2018-12-19T07:06:54.289Z,102951.99
2018-12-19T07:09:20.758Z,102955.48
2018-12-19T07:11:46.862Z,102954.59
2018-12-19T07:14:12.949Z,102950.19
2018-12-19T07:16:43.401Z,102954.55
2018-12-19T07:19:07.191Z,102945.33
2018-12-19T07:21:33.245Z,102958.45
2018-12-19T07:23:59.388Z,102962.77
2018-12-19T07:26:25.476Z,102969.76
2018-12-19T07:28:58.513Z,102970.14
2018-12-19T07:31:24.739Z,102972.30
2018-12-19T07:33:50.820Z,102980.17
2018-12-19T07:36:16.916Z,102984.55
2018-12-19T07:38:43.149Z,102985.42
2018-12-19T07:41:09.184Z,102983.66
2018-12-19T07:43:35.242Z,102987.19
2018-12-19T07:46:01.557Z,102988.05
2018-12-19T07:48:27.855Z,102992.83
2018-12-19T07:50:53.924Z,102988.45
2018-12-19T07:53:20.156Z,102989.77
2018-12-19T07:58:42.175Z,102990.66
2018-12-19T08:01:08.262Z,102983.61
2018-12-19T08:03:34.326Z,102988.41
2018-12-19T08:06:00.552Z,102995.85
2018-12-19T08:08:26.581Z,102997.59
2018-12-19T08:10:52.659Z,103002.42
2018-12-19T08:13:18.905Z,102999.32
2018-12-19T08:15:44.957Z,103006.78
2018-12-19T08:18:11.005Z,102999.80
2018-12-19T08:20:37.284Z,103003.73
2018-12-19T08:23:03.314Z,102996.23
2018-12-19T08:25:29.408Z,103001.92
2018-12-19T08:27:55.670Z,103002.82
2018-12-19T08:30:21.755Z,103008.52
2018-12-19T08:32:47.901Z,103007.66
2018-12-19T08:35:14.138Z,102956.39
2018-12-19T08:37:40.211Z,103011.55
2018-12-19T08:40:06.361Z,103005.87
2018-12-19T08:42:32.758Z,103005.84
2018-12-19T08:44:58.815Z,103006.72
2018-12-19T08:47:24.873Z,103007.55
2018-12-19T08:49:51.113Z,103007.58
2018-12-19T08:52:17.125Z,103018.09
2018-12-19T08:54:43.184Z,103009.77
2018-12-19T08:57:09.468Z,103015.02
2018-12-19T08:59:35.536Z,103014.15
2018-12-19T09:04:54.443Z,103008.47
2018-12-19T09:07:20.755Z,103006.72
2018-12-19T09:09:46.787Z,103008.50
2018-12-19T09:12:12.826Z,103010.23
2018-12-19T09:14:39.103Z,103019.42
2018-12-19T09:17:05.481Z,103015.96
2018-12-19T09:19:31.654Z,103015.09
2018-12-19T09:21:58.050Z,103017.30
2018-12-19T09:24:24.083Z,103004.13
2018-12-19T09:26:50.145Z,103003.66
2018-12-19T09:29:16.276Z,103000.13
2018-12-19T09:31:45.607Z,102999.65
2018-12-19T09:34:12.329Z,102997.45
2018-12-19T09:36:38.879Z,102997.43
2018-12-19T09:39:05.466Z,102992.59
2018-12-19T09:41:31.539Z,102989.94
2018-12-19T09:43:57.894Z,102990.36
2018-12-19T09:46:23.929Z,102981.62
2018-12-19T09:48:49.967Z,102988.21
2018-12-19T09:51:16.082Z,102980.75
2018-12-19T09:53:42.174Z,102987.80
2018-12-19T09:56:08.245Z,102985.17
2018-12-19T09:58:34.394Z,102972.03
2018-12-19T10:01:01.946Z,102971.17
2018-12-19T10:03:28.185Z,102964.58
2018-12-19T10:05:54.524Z,102975.95
2018-12-19T10:08:20.595Z,102970.67
2018-12-19T10:10:46.657Z,102965.42
2018-12-19T10:13:12.950Z,102967.19
2018-12-19T10:15:38.974Z,102962.75
2018-12-19T10:18:05.030Z,102963.22
2018-12-19T10:20:31.264Z,102968.50
2018-12-19T10:22:57.317Z,102964.11
2018-12-19T10:25:23.357Z,102964.11
2018-12-19T10:27:49.721Z,102960.17
2018-12-19T10:30:15.801Z,102960.59
2018-12-19T10:32:41.861Z,102968.90
2018-12-19T10:35:09.404Z,102965.41
2018-12-19T10:37:35.676Z,102965.45
2018-12-19T10:40:01.916Z,102965.05
2018-12-19T10:42:28.104Z,102967.67
2018-12-19T10:44:54.172Z,102966.38
2018-12-19T10:50:16.961Z,102959.85
2018-12-19T10:52:43.268Z,102906.01
2018-12-19T10:55:09.374Z,102956.36
2018-12-19T10:57:35.448Z,102953.33
2018-12-19T11:00:02.003Z,102961.19
2018-12-19T11:02:28.056Z,102957.25
2018-12-19T11:07:26.962Z,102954.22
2018-12-19T11:09:53.035Z,102954.66
2018-12-19T11:12:19.068Z,102909.19
2018-12-19T11:14:45.401Z,102953.84
2018-12-19T11:17:11.617Z,102942.77
2018-12-19T11:19:37.630Z,102949.47
2018-12-19T11:22:03.936Z,102953.88
2018-12-19T11:24:30.041Z,102953.43
2018-12-19T11:26:56.230Z,102946.44
2018-12-19T11:29:22.520Z,102941.20
2018-12-19T11:31:48.960Z,102942.95
2018-12-19T11:34:15.078Z,102944.27
2018-12-19T11:36:41.318Z,102943.85
2018-12-19T11:39:07.384Z,102947.38
2018-12-19T11:41:38.907Z,102947.81
2018-12-19T11:44:02.341Z,102954.39
2018-12-19T11:46:28.404Z,102947.39
2018-12-19T11:48:54.444Z,102953.11
2018-12-19T11:51:20.827Z,102940.86
2018-12-19T11:53:46.941Z,102944.35
2018-12-19T11:56:13.281Z,102948.27
2018-12-19T11:58:39.695Z,102950.91
2018-12-19T12:01:05.737Z,102952.23
2018-12-19T12:03:31.771Z,102948.77
2018-12-19T12:05:57.916Z,102940.88
2018-12-19T12:08:23.956Z,102944.83
2018-12-19T12:10:50.048Z,102941.34
2018-12-19T12:13:16.214Z,102935.19
2018-12-19T12:15:42.265Z,102933.45
2018-12-19T12:18:08.278Z,102926.01
2018-12-19T12:20:34.533Z,102931.28
2018-12-19T12:23:00.608Z,102923.88
2018-12-19T12:25:26.822Z,102922.58
2018-12-19T12:27:53.070Z,102926.95
2018-12-19T12:30:19.135Z,102921.70
2018-12-19T12:32:45.227Z,102923.02
2018-12-19T12:35:11.512Z,102920.39
2018-12-19T12:37:37.604Z,102921.30
2018-12-19T12:40:06.394Z,102917.80
2018-12-19T12:42:32.729Z,102915.60
2018-12-19T12:44:59.025Z,102914.28
2018-12-19T12:47:25.235Z,102909.92
2018-12-19T12:49:51.446Z,102912.55
2018-12-19T12:52:17.534Z,102903.35
2018-12-19T12:54:43.598Z,102910.84
2018-12-19T12:57:09.819Z,102903.84
2018-12-19T12:59:35.900Z,102904.70
2018-12-19T13:02:01.970Z,102895.95
2018-12-19T13:04:28.189Z,102901.66
2018-12-19T13:06:54.301Z,102903.00
2018-12-19T13:09:20.346Z,102899.95
2018-12-19T13:11:46.717Z,102903.88
2018-12-19T13:14:12.891Z,102901.25
2018-12-19T13:16:38.953Z,102902.09
2018-12-19T13:19:05.226Z,102908.23
2018-12-19T13:21:31.484Z,102911.75
2018-12-19T13:23:57.520Z,102910.87
2018-12-19T13:26:23.818Z,102905.63
2018-12-19T13:28:56.867Z,102908.26
2018-12-19T13:31:22.932Z,102901.69
2018-12-19T13:33:49.126Z,102906.98
2018-12-19T13:36:15.189Z,102907.85
2018-12-19T13:38:41.268Z,102899.08
2018-12-19T13:41:07.597Z,102908.72
2018-12-19T13:43:33.672Z,102913.11
2018-12-19T13:45:59.727Z,102914.45
2018-12-19T13:48:26.019Z,102910.05
2018-12-19T13:50:52.058Z,102910.92
2018-12-19T13:53:18.113Z,102906.56
2018-12-19T13:55:44.500Z,102908.73
2018-12-19T13:58:10.572Z,102903.45
2018-12-19T14:00:36.662Z,102910.05
2018-12-19T14:03:03.003Z,102908.30
2018-12-19T14:05:29.050Z,102900.41
2018-12-19T14:07:55.131Z,102903.91
2018-12-19T14:10:21.384Z,102907.38
2018-12-19T14:12:47.763Z,102905.20
2018-12-19T14:15:13.814Z,102905.64
2018-12-19T14:17:40.076Z,102907.40
2018-12-19T14:20:07.002Z,102905.66
2018-12-19T14:22:33.094Z,102914.45
2018-12-19T14:27:32.236Z,102913.97
2018-12-19T14:29:58.292Z,102912.67
2018-12-19T14:32:24.556Z,102912.67
2018-12-19T14:34:50.647Z,102899.98
2018-12-19T14:37:16.774Z,102906.10
2018-12-19T14:39:42.976Z,102906.56
2018-12-19T14:42:09.036Z,102903.92
2018-12-19T14:44:35.125Z,102899.53
2018-12-19T14:47:01.375Z,102902.61
2018-12-19T14:49:27.445Z,102905.24
2018-12-19T14:51:53.535Z,102903.47
2018-12-19T14:54:19.817Z,102904.37
2018-12-19T14:56:45.889Z,102906.10
2018-12-19T14:59:11.916Z,102898.69
2018-12-19T15:01:38.226Z,102895.16
2018-12-19T15:04:04.244Z,102894.28
2018-12-19T15:06:30.330Z,102896.46
2018-12-19T15:08:56.519Z,102890.78
2018-12-19T15:11:22.550Z,102896.04
2018-12-19T15:13:48.573Z,102896.05
2018-12-19T15:16:16.909Z,102900.00
2018-12-19T15:18:42.973Z,102899.14
2018-12-19T15:21:09.009Z,102900.45
2018-12-19T15:23:35.417Z,102902.21
2018-12-19T15:26:01.461Z,102891.27
2018-12-19T15:28:27.782Z,102891.28
2018-12-19T15:30:54.085Z,102896.12
2018-12-19T15:33:20.103Z,102895.24
2018-12-19T15:35:46.194Z,102898.31
2018-12-19T15:38:12.480Z,102902.26
2018-12-19T15:40:38.558Z,102902.27
2018-12-19T15:43:04.613Z,102905.78
2018-12-19T15:45:30.851Z,102900.52
2018-12-19T15:47:56.943Z,102904.47
2018-12-19T15:50:23.009Z,102904.47
2018-12-19T15:52:49.241Z,102898.78
2018-12-19T15:55:15.331Z,102911.50
2018-12-19T15:57:41.421Z,102907.12
2018-12-19T16:00:09.892Z,102915.45
2018-12-19T16:02:35.937Z,102918.08
2018-12-19T16:05:08.815Z,102918.08
2018-12-19T16:07:34.993Z,102914.56
2018-12-19T16:10:01.016Z,102904.47
2018-12-19T16:12:27.151Z,102900.54
2018-12-19T16:14:53.352Z,102900.12
2018-12-19T16:17:19.410Z,102902.29
2018-12-19T16:19:45.456Z,102902.30
2018-12-19T16:22:11.747Z,102899.67
2018-12-19T16:24:37.804Z,102902.78
2018-12-19T16:27:04.021Z,102905.41
2018-12-19T16:29:30.304Z,102913.28
2018-12-19T16:31:56.426Z,102913.28
2018-12-19T16:34:22.516Z,102916.34
2018-12-19T16:36:48.732Z,102911.95
2018-12-19T16:39:15.160Z,102917.22
2018-12-19T16:41:41.213Z,102918.53
2018-12-19T16:44:07.443Z,102914.59
2018-12-19T16:46:40.437Z,102922.00
2018-12-19T16:49:06.554Z,102920.67
2018-12-19T16:51:32.954Z,102907.97
2018-12-19T16:53:59.379Z,102915.41
2018-12-19T16:56:25.426Z,102911.03
2018-12-19T16:58:51.545Z,102913.22
2018-12-19T17:01:17.631Z,102913.22
2018-12-19T17:03:43.765Z,102904.02
2018-12-19T17:06:09.988Z,102900.91
2018-12-19T17:08:36.046Z,102893.02
2018-12-19T17:11:02.088Z,102905.73
2018-12-19T17:13:28.393Z,102910.11
2018-12-19T17:15:54.578Z,102913.19
2018-12-19T17:18:20.716Z,102916.23
2018-12-19T17:20:47.082Z,102911.87
2018-12-19T17:23:13.255Z,102914.50
2018-12-19T17:25:39.453Z,102913.61
2018-12-19T17:28:05.857Z,102915.34
2018-12-19T17:30:32.029Z,102858.02
2018-12-19T17:32:58.260Z,102913.19
2018-12-19T17:35:24.624Z,102912.73
2018-12-19T17:37:50.778Z,102915.83
2018-12-19T17:40:17.029Z,102863.73
2018-12-19T17:42:43.343Z,102918.00
2018-12-19T17:45:09.606Z,102914.94
2018-12-19T17:47:35.857Z,102913.63
2018-12-19T17:50:04.152Z,102914.52
2018-12-19T17:52:30.300Z,102912.31
2018-12-19T17:54:56.500Z,102914.52
2018-12-19T17:57:22.832Z,102905.73
2018-12-19T17:59:48.987Z,102913.20
2018-12-19T18:02:15.282Z,102924.16
2018-12-19T18:04:41.676Z,102914.53
2018-12-19T18:07:07.896Z,102921.53
2018-12-19T18:09:34.421Z,102929.02
2018-12-19T18:12:00.809Z,102932.98
2018-12-19T18:14:27.041Z,102941.29
2018-12-19T18:16:53.248Z,102935.14
2018-12-19T18:19:23.345Z,102943.02
2018-12-19T18:21:47.984Z,102948.27
2018-12-19T18:24:14.402Z,102948.70
2018-12-19T18:26:41.113Z,102945.19
2018-12-19T18:29:07.901Z,102953.08
2018-12-19T18:31:34.092Z,102950.86
2018-12-19T18:34:00.433Z,102945.63
2018-12-19T18:36:26.679Z,102947.41
2018-12-19T18:38:52.874Z,102955.31
2018-12-19T18:41:19.318Z,102949.19
2018-12-19T18:43:45.595Z,102950.94
2018-12-19T18:46:11.862Z,102956.66
2018-12-19T18:48:38.288Z,102964.55
2018-12-19T18:51:04.592Z,102967.58
2018-12-19T18:53:30.800Z,102965.84
2018-12-19T18:55:57.085Z,102964.95
2018-12-19T18:58:23.385Z,102962.31
2018-12-19T19:00:49.887Z,102967.58
2018-12-19T19:03:16.168Z,102964.50
2018-12-19T19:05:42.449Z,102963.59
2018-12-19T19:08:08.778Z,102960.95
2018-12-19T19:10:35.396Z,102968.38
2018-12-19T19:13:01.618Z,102959.58
2018-12-19T19:15:27.891Z,102965.73
2018-12-19T19:17:54.290Z,102962.64
2018-12-19T19:20:20.575Z,102964.44
2018-12-19T19:22:53.606Z,102967.08
2018-12-19T19:25:20.035Z,102963.55
2018-12-19T19:27:46.277Z,102967.52
2018-12-19T19:30:12.656Z,102963.14
2018-12-19T19:32:39.085Z,102964.85
2018-12-19T19:35:05.473Z,102967.92
2018-12-19T19:37:31.999Z,102964.88
2018-12-19T19:40:06.559Z,102963.99
2018-12-19T19:42:32.849Z,102962.70
2018-12-19T19:44:59.083Z,102964.91
2018-12-19T19:47:25.395Z,102963.17
2018-12-19T19:49:51.653Z,102965.36
2018-12-19T19:52:17.926Z,102966.70
2018-12-19T19:54:44.393Z,102966.26
2018-12-19T19:57:10.628Z,102964.50
2018-12-19T19:59:36.887Z,102969.77
2018-12-19T20:02:03.377Z,102965.80
2018-12-19T20:04:29.620Z,102969.27
2018-12-19T20:06:59.351Z,102962.68
2018-12-19T20:09:24.313Z,102960.48
2018-12-19T20:11:50.594Z,102955.21
2018-12-19T20:14:16.868Z,102952.56
2018-12-19T20:16:49.141Z,102957.82
2018-12-19T20:19:15.433Z,102968.78
2018-12-19T20:21:41.654Z,102967.45
2018-12-19T20:24:08.121Z,102973.09
2018-12-19T20:26:34.424Z,102966.47
2018-12-19T20:29:00.664Z,102974.34
2018-12-19T20:31:27.099Z,102976.13
2018-12-19T20:36:50.022Z,102978.30
2018-12-19T20:39:16.252Z,102984.88
2018-12-19T20:41:42.505Z,102980.52
2018-12-19T20:44:08.990Z,102980.94
2018-12-19T20:46:35.233Z,102986.65
2018-12-19T20:49:01.554Z,102975.66
2018-12-19T20:51:27.919Z,102978.70
2018-12-19T20:56:50.088Z,102987.03
2018-12-19T20:59:16.364Z,102986.53
2018-12-19T21:01:42.748Z,102993.11
2018-12-19T21:04:09.097Z,102993.56
2018-12-19T21:06:35.384Z,102991.36
2018-12-19T21:09:01.644Z,102990.46
2018-12-19T21:11:28.092Z,102997.03
2018-12-19T21:16:53.235Z,102987.79
2018-12-19T21:19:19.478Z,102983.83
2018-12-19T21:21:45.768Z,102980.75
2018-12-19T21:24:12.147Z,102979.86
2018-12-19T21:26:38.431Z,102985.99
2018-12-19T21:29:04.861Z,102984.68
2018-12-19T21:31:31.326Z,102985.09
2018-12-19T21:33:57.606Z,102986.89
2018-12-19T21:36:23.850Z,102986.44
2018-12-19T21:38:50.229Z,102993.88
2018-12-19T21:41:16.466Z,102994.75
2018-12-19T21:43:42.692Z,102990.81
2018-12-19T21:46:08.990Z,102988.18
2018-12-19T21:48:35.082Z,102991.67
2018-12-19T21:51:01.258Z,102994.30
2018-12-19T21:53:27.461Z,102992.56
2018-12-19T21:55:53.517Z,102997.38
2018-12-19T21:58:19.616Z,102996.51
2018-12-19T22:00:45.988Z,102992.56
2018-12-19T22:06:07.895Z,102989.94
2018-12-19T22:08:34.070Z,102996.09
2018-12-19T22:11:00.245Z,102995.19
2018-12-19T22:13:26.415Z,102989.52
2018-12-19T22:15:52.680Z,102992.14
2018-12-19T22:18:24.850Z,102993.45
2018-12-19T22:20:51.067Z,102994.30
2018-12-19T22:23:17.089Z,102995.19
2018-12-19T22:25:43.189Z,102992.14
2018-12-19T22:28:09.581Z,102992.56
2018-12-19T22:30:35.721Z,102996.09
2018-12-19T22:33:01.811Z,102996.53
2018-12-19T22:35:28.340Z,102985.12
2018-12-19T22:37:54.490Z,102991.72
2018-12-19T22:40:20.613Z,102990.40
2018-12-19T22:42:46.738Z,102991.72
2018-12-19T22:45:12.858Z,102999.62
2018-12-19T22:47:38.901Z,102998.78
2018-12-19T22:50:05.344Z,102995.70
2018-12-19T22:52:31.450Z,102998.33
2018-12-19T22:54:57.516Z,102993.06
2018-12-19T22:57:23.715Z,102992.65
2018-12-19T22:59:49.754Z,102997.51
2018-12-19T23:02:21.839Z,102997.53
2018-12-19T23:04:48.172Z,102998.41
2018-12-19T23:07:14.329Z,102996.67
2018-12-19T23:09:40.523Z,102990.52
2018-12-19T23:12:06.839Z,102997.11
2018-12-19T23:14:32.986Z,102996.25
2018-12-19T23:17:01.079Z,102996.69
2018-12-19T23:19:27.349Z,103005.06
2018-12-19T23:21:53.527Z,103000.66
2018-12-19T23:24:19.675Z,102994.08
2018-12-19T23:26:46.379Z,103003.74
2018-12-19T23:29:12.459Z,102995.85
2018-12-19T23:31:38.527Z,102993.66
2018-12-19T23:34:05.106Z,102988.83
2018-12-19T23:36:31.142Z,102992.79
2018-12-19T23:38:57.189Z,102989.32
2018-12-19T23:41:23.434Z,102990.66
2018-12-19T23:43:49.523Z,102991.97
2018-12-19T23:46:15.627Z,102994.59
2018-12-19T23:48:41.769Z,102995.04
2018-12-19T23:51:07.963Z,102998.11
2018-12-19T23:56:30.500Z,102996.83
2018-12-19T23:58:56.869Z,103004.74
